sensor_id;sensor_type;location;lat;lon;timestamp;P1;durP1;ratioP1;P2;durP2;ratioP2
70199;SDS011;57587;55.688;37.600;2023-04-25T00:00:10;14.45;;;7.03;;
70199;SDS011;57587;55.688;37.600;2023-04-25T00:02:39;11.17;;;6.40;;
70199;SDS011;57587;55.688;37.600;2023-04-25T00:05:07;11.25;;;6.63;;
70199;SDS011;57587;55.688;37.600;2023-04-25T00:07:35;12.07;;;7.35;;
70199;SDS011;57587;55.688;37.600;2023-04-25T00:10:03;12.20;;;6.65;;
70199;SDS011;57587;55.688;37.600;2023-04-25T00:12:31;13.63;;;6.30;;
70199;SDS011;57587;55.688;37.600;2023-04-25T00:15:00;11.60;;;6.73;;
70199;SDS011;57587;55.688;37.600;2023-04-25T00:17:30;18.48;;;7.50;;
70199;SDS011;57587;55.688;37.600;2023-04-25T00:20:02;14.23;;;8.07;;
70199;SDS011;57587;55.688;37.600;2023-04-25T00:22:33;17.10;;;7.25;;
70199;SDS011;57587;55.688;37.600;2023-04-25T00:25:07;18.13;;;7.35;;
70199;SDS011;57587;55.688;37.600;2023-04-25T00:27:34;14.43;;;6.90;;
70199;SDS011;57587;55.688;37.600;2023-04-25T00:30:02;14.63;;;6.70;;
70199;SDS011;57587;55.688;37.600;2023-04-25T00:32:32;10.35;;;5.88;;
70199;SDS011;57587;55.688;37.600;2023-04-25T00:35:00;10.85;;;6.13;;
70199;SDS011;57587;55.688;37.600;2023-04-25T00:37:28;11.10;;;6.07;;
70199;SDS011;57587;55.688;37.600;2023-04-25T00:39:59;8.57;;;5.53;;
70199;SDS011;57587;55.688;37.600;2023-04-25T00:42:31;15.52;;;5.78;;
70199;SDS011;57587;55.688;37.600;2023-04-25T00:45:04;14.45;;;6.63;;
70199;SDS011;57587;55.688;37.600;2023-04-25T00:47:33;13.77;;;6.50;;
70199;SDS011;57587;55.688;37.600;2023-04-25T00:50:01;15.38;;;6.45;;
70199;SDS011;57587;55.688;37.600;2023-04-25T00:52:29;18.63;;;6.60;;
70199;SDS011;57587;55.688;37.600;2023-04-25T00:54:56;16.45;;;7.82;;
70199;SDS011;57587;55.688;37.600;2023-04-25T00:57:23;14.45;;;8.07;;
70199;SDS011;57587;55.688;37.600;2023-04-25T00:59:51;15.02;;;7.88;;
70199;SDS011;57587;55.688;37.600;2023-04-25T01:02:19;19.70;;;8.35;;
70199;SDS011;57587;55.688;37.600;2023-04-25T01:04:47;15.77;;;7.80;;
70199;SDS011;57587;55.688;37.600;2023-04-25T01:07:15;15.35;;;7.30;;
70199;SDS011;57587;55.688;37.600;2023-04-25T01:09:42;29.52;;;8.82;;
70199;SDS011;57587;55.688;37.600;2023-04-25T01:12:10;15.10;;;7.95;;
70199;SDS011;57587;55.688;37.600;2023-04-25T01:14:37;14.32;;;7.80;;
70199;SDS011;57587;55.688;37.600;2023-04-25T01:17:05;19.50;;;7.50;;
70199;SDS011;57587;55.688;37.600;2023-04-25T01:19:34;13.85;;;7.47;;
70199;SDS011;57587;55.688;37.600;2023-04-25T01:22:02;17.52;;;8.27;;
70199;SDS011;57587;55.688;37.600;2023-04-25T01:24:33;16.58;;;7.07;;
70199;SDS011;57587;55.688;37.600;2023-04-25T01:27:01;14.07;;;7.65;;
70199;SDS011;57587;55.688;37.600;2023-04-25T01:29:29;13.57;;;7.37;;
70199;SDS011;57587;55.688;37.600;2023-04-25T01:31:57;21.48;;;7.80;;
70199;SDS011;57587;55.688;37.600;2023-04-25T01:34:25;17.10;;;7.55;;
70199;SDS011;57587;55.688;37.600;2023-04-25T01:36:52;13.98;;;7.43;;
70199;SDS011;57587;55.688;37.600;2023-04-25T01:39:21;17.38;;;7.97;;
70199;SDS011;57587;55.688;37.600;2023-04-25T01:41:48;18.60;;;7.43;;
70199;SDS011;57587;55.688;37.600;2023-04-25T01:44:16;20.50;;;8.00;;
70199;SDS011;57587;55.688;37.600;2023-04-25T01:46:43;16.30;;;8.35;;
70199;SDS011;57587;55.688;37.600;2023-04-25T01:49:10;14.77;;;8.00;;
70199;SDS011;57587;55.688;37.600;2023-04-25T01:51:39;13.38;;;7.43;;
70199;SDS011;57587;55.688;37.600;2023-04-25T01:54:07;13.20;;;8.00;;
70199;SDS011;57587;55.688;37.600;2023-04-25T01:56:36;14.82;;;7.57;;
70199;SDS011;57587;55.688;37.600;2023-04-25T01:59:06;13.27;;;7.40;;
70199;SDS011;57587;55.688;37.600;2023-04-25T02:02:02;16.08;;;7.80;;
70199;SDS011;57587;55.688;37.600;2023-04-25T02:04:32;18.63;;;7.63;;
70199;SDS011;57587;55.688;37.600;2023-04-25T02:07:00;13.33;;;8.13;;
70199;SDS011;57587;55.688;37.600;2023-04-25T02:09:36;19.55;;;7.57;;
70199;SDS011;57587;55.688;37.600;2023-04-25T02:12:05;13.77;;;7.65;;
70199;SDS011;57587;55.688;37.600;2023-04-25T02:14:52;17.02;;;7.47;;
70199;SDS011;57587;55.688;37.600;2023-04-25T02:17:34;16.38;;;7.68;;
70199;SDS011;57587;55.688;37.600;2023-04-25T02:20:02;18.47;;;8.33;;
70199;SDS011;57587;55.688;37.600;2023-04-25T02:22:30;12.85;;;7.38;;
70199;SDS011;57587;55.688;37.600;2023-04-25T02:24:57;15.70;;;8.05;;
70199;SDS011;57587;55.688;37.600;2023-04-25T02:27:24;13.27;;;7.47;;
70199;SDS011;57587;55.688;37.600;2023-04-25T02:29:51;12.73;;;7.40;;
70199;SDS011;57587;55.688;37.600;2023-04-25T02:32:18;15.90;;;7.13;;
70199;SDS011;57587;55.688;37.600;2023-04-25T02:34:46;19.10;;;7.72;;
70199;SDS011;57587;55.688;37.600;2023-04-25T02:37:14;16.23;;;8.02;;
70199;SDS011;57587;55.688;37.600;2023-04-25T02:39:44;13.13;;;7.10;;
70199;SDS011;57587;55.688;37.600;2023-04-25T02:42:11;15.38;;;7.57;;
70199;SDS011;57587;55.688;37.600;2023-04-25T02:44:38;16.70;;;7.13;;
70199;SDS011;57587;55.688;37.600;2023-04-25T02:47:05;16.90;;;7.70;;
70199;SDS011;57587;55.688;37.600;2023-04-25T02:49:33;16.95;;;7.32;;
70199;SDS011;57587;55.688;37.600;2023-04-25T02:52:00;17.08;;;7.70;;
70199;SDS011;57587;55.688;37.600;2023-04-25T02:54:27;12.05;;;7.30;;
70199;SDS011;57587;55.688;37.600;2023-04-25T02:56:56;11.27;;;7.23;;
70199;SDS011;57587;55.688;37.600;2023-04-25T02:59:27;16.70;;;6.93;;
70199;SDS011;57587;55.688;37.600;2023-04-25T03:01:54;14.20;;;7.68;;
70199;SDS011;57587;55.688;37.600;2023-04-25T03:04:22;13.75;;;7.47;;
70199;SDS011;57587;55.688;37.600;2023-04-25T03:06:51;16.77;;;7.40;;
70199;SDS011;57587;55.688;37.600;2023-04-25T03:09:20;14.63;;;7.20;;
70199;SDS011;57587;55.688;37.600;2023-04-25T03:11:47;19.30;;;8.02;;
70199;SDS011;57587;55.688;37.600;2023-04-25T03:14:14;16.13;;;8.15;;
70199;SDS011;57587;55.688;37.600;2023-04-25T03:16:41;13.82;;;7.20;;
70199;SDS011;57587;55.688;37.600;2023-04-25T03:19:09;16.25;;;8.10;;
70199;SDS011;57587;55.688;37.600;2023-04-25T03:21:36;23.03;;;9.13;;
70199;SDS011;57587;55.688;37.600;2023-04-25T03:24:04;12.45;;;7.80;;
70199;SDS011;57587;55.688;37.600;2023-04-25T03:26:31;16.25;;;8.20;;
70199;SDS011;57587;55.688;37.600;2023-04-25T03:28:59;17.48;;;8.70;;
70199;SDS011;57587;55.688;37.600;2023-04-25T03:31:27;17.70;;;8.77;;
70199;SDS011;57587;55.688;37.600;2023-04-25T03:33:54;14.07;;;8.20;;
70199;SDS011;57587;55.688;37.600;2023-04-25T03:36:23;18.25;;;8.55;;
70199;SDS011;57587;55.688;37.600;2023-04-25T03:38:50;29.63;;;10.85;;
70199;SDS011;57587;55.688;37.600;2023-04-25T03:41:19;25.48;;;11.70;;
70199;SDS011;57587;55.688;37.600;2023-04-25T03:43:57;22.35;;;10.82;;
70199;SDS011;57587;55.688;37.600;2023-04-25T03:46:26;23.47;;;11.57;;
70199;SDS011;57587;55.688;37.600;2023-04-25T03:48:53;25.15;;;11.45;;
70199;SDS011;57587;55.688;37.600;2023-04-25T03:51:25;21.20;;;11.82;;
70199;SDS011;57587;55.688;37.600;2023-04-25T03:53:52;21.83;;;11.43;;
70199;SDS011;57587;55.688;37.600;2023-04-25T03:56:51;25.02;;;12.70;;
70199;SDS011;57587;55.688;37.600;2023-04-25T03:59:21;18.87;;;11.40;;
70199;SDS011;57587;55.688;37.600;2023-04-25T04:01:48;18.83;;;12.02;;
70199;SDS011;57587;55.688;37.600;2023-04-25T04:04:15;32.75;;;12.00;;
70199;SDS011;57587;55.688;37.600;2023-04-25T04:06:43;22.00;;;12.30;;
70199;SDS011;57587;55.688;37.600;2023-04-25T04:09:15;25.23;;;12.20;;
70199;SDS011;57587;55.688;37.600;2023-04-25T04:11:43;22.03;;;11.37;;
70199;SDS011;57587;55.688;37.600;2023-04-25T04:14:11;21.08;;;11.70;;
70199;SDS011;57587;55.688;37.600;2023-04-25T04:16:42;22.98;;;11.98;;
70199;SDS011;57587;55.688;37.600;2023-04-25T04:19:09;21.40;;;12.02;;
70199;SDS011;57587;55.688;37.600;2023-04-25T04:21:40;18.20;;;12.38;;
70199;SDS011;57587;55.688;37.600;2023-04-25T04:24:08;21.43;;;12.70;;
70199;SDS011;57587;55.688;37.600;2023-04-25T04:26:48;18.90;;;12.95;;
70199;SDS011;57587;55.688;37.600;2023-04-25T04:29:41;23.80;;;13.45;;
70199;SDS011;57587;55.688;37.600;2023-04-25T04:32:43;29.65;;;12.13;;
70199;SDS011;57587;55.688;37.600;2023-04-25T04:35:11;18.95;;;12.27;;
70199;SDS011;57587;55.688;37.600;2023-04-25T04:37:39;23.23;;;12.27;;
70199;SDS011;57587;55.688;37.600;2023-04-25T04:40:09;15.68;;;11.13;;
70199;SDS011;57587;55.688;37.600;2023-04-25T04:42:53;21.63;;;12.73;;
70199;SDS011;57587;55.688;37.600;2023-04-25T04:45:45;19.25;;;11.98;;
70199;SDS011;57587;55.688;37.600;2023-04-25T04:48:31;23.65;;;12.55;;
70199;SDS011;57587;55.688;37.600;2023-04-25T04:51:24;20.40;;;11.30;;
70199;SDS011;57587;55.688;37.600;2023-04-25T04:54:55;19.10;;;11.77;;
70199;SDS011;57587;55.688;37.600;2023-04-25T04:57:34;19.23;;;11.95;;
70199;SDS011;57587;55.688;37.600;2023-04-25T05:00:19;14.95;;;11.05;;
70199;SDS011;57587;55.688;37.600;2023-04-25T05:03:07;19.77;;;10.50;;
70199;SDS011;57587;55.688;37.600;2023-04-25T05:05:58;11.57;;;9.90;;
70199;SDS011;57587;55.688;37.600;2023-04-25T05:08:51;15.32;;;9.77;;
70199;SDS011;57587;55.688;37.600;2023-04-25T05:11:36;14.27;;;10.98;;
70199;SDS011;57587;55.688;37.600;2023-04-25T05:14:33;16.75;;;10.52;;
70199;SDS011;57587;55.688;37.600;2023-04-25T05:17:21;24.55;;;11.50;;
70199;SDS011;57587;55.688;37.600;2023-04-25T05:20:14;15.20;;;10.40;;
70199;SDS011;57587;55.688;37.600;2023-04-25T05:23:00;15.15;;;9.50;;
70199;SDS011;57587;55.688;37.600;2023-04-25T05:26:00;19.98;;;11.77;;
70199;SDS011;57587;55.688;37.600;2023-04-25T05:28:59;22.95;;;11.52;;
70199;SDS011;57587;55.688;37.600;2023-04-25T05:31:45;17.83;;;11.05;;
70199;SDS011;57587;55.688;37.600;2023-04-25T05:34:15;26.70;;;12.70;;
70199;SDS011;57587;55.688;37.600;2023-04-25T05:37:03;20.98;;;11.70;;
70199;SDS011;57587;55.688;37.600;2023-04-25T05:39:33;21.38;;;12.15;;
70199;SDS011;57587;55.688;37.600;2023-04-25T05:42:12;16.58;;;11.68;;
70199;SDS011;57587;55.688;37.600;2023-04-25T05:44:49;21.77;;;11.10;;
70199;SDS011;57587;55.688;37.600;2023-04-25T05:47:31;15.53;;;9.37;;
70199;SDS011;57587;55.688;37.600;2023-04-25T05:50:27;17.50;;;10.73;;
70199;SDS011;57587;55.688;37.600;2023-04-25T05:53:00;18.35;;;11.20;;
70199;SDS011;57587;55.688;37.600;2023-04-25T05:55:33;19.63;;;10.48;;
70199;SDS011;57587;55.688;37.600;2023-04-25T05:58:13;17.42;;;9.75;;
70199;SDS011;57587;55.688;37.600;2023-04-25T06:00:41;19.20;;;10.27;;
70199;SDS011;57587;55.688;37.600;2023-04-25T06:03:08;12.60;;;9.52;;
70199;SDS011;57587;55.688;37.600;2023-04-25T06:05:36;16.48;;;9.70;;
70199;SDS011;57587;55.688;37.600;2023-04-25T06:08:03;20.75;;;10.25;;
70199;SDS011;57587;55.688;37.600;2023-04-25T06:10:31;30.25;;;11.05;;
70199;SDS011;57587;55.688;37.600;2023-04-25T06:12:58;19.07;;;10.03;;
70199;SDS011;57587;55.688;37.600;2023-04-25T06:15:25;18.55;;;9.93;;
70199;SDS011;57587;55.688;37.600;2023-04-25T06:17:55;16.05;;;9.98;;
70199;SDS011;57587;55.688;37.600;2023-04-25T06:20:22;16.23;;;10.15;;
70199;SDS011;57587;55.688;37.600;2023-04-25T06:22:53;18.92;;;10.70;;
70199;SDS011;57587;55.688;37.600;2023-04-25T06:25:27;17.57;;;8.37;;
70199;SDS011;57587;55.688;37.600;2023-04-25T06:27:55;17.85;;;9.10;;
70199;SDS011;57587;55.688;37.600;2023-04-25T06:30:22;19.27;;;9.32;;
70199;SDS011;57587;55.688;37.600;2023-04-25T06:32:57;17.95;;;8.70;;
70199;SDS011;57587;55.688;37.600;2023-04-25T06:35:27;15.73;;;8.52;;
70199;SDS011;57587;55.688;37.600;2023-04-25T06:37:54;14.80;;;8.70;;
70199;SDS011;57587;55.688;37.600;2023-04-25T06:40:23;18.40;;;8.90;;
70199;SDS011;57587;55.688;37.600;2023-04-25T06:42:50;12.27;;;8.50;;
70199;SDS011;57587;55.688;37.600;2023-04-25T06:45:40;14.55;;;8.40;;
70199;SDS011;57587;55.688;37.600;2023-04-25T06:48:10;13.48;;;8.65;;
70199;SDS011;57587;55.688;37.600;2023-04-25T06:50:37;15.90;;;7.97;;
70199;SDS011;57587;55.688;37.600;2023-04-25T06:53:04;11.43;;;7.97;;
70199;SDS011;57587;55.688;37.600;2023-04-25T06:55:31;18.35;;;8.90;;
70199;SDS011;57587;55.688;37.600;2023-04-25T06:58:19;14.98;;;8.10;;
70199;SDS011;57587;55.688;37.600;2023-04-25T07:01:09;16.25;;;7.97;;
70199;SDS011;57587;55.688;37.600;2023-04-25T07:03:37;11.83;;;8.57;;
70199;SDS011;57587;55.688;37.600;2023-04-25T07:06:11;14.27;;;8.50;;
70199;SDS011;57587;55.688;37.600;2023-04-25T07:08:38;13.75;;;8.50;;
70199;SDS011;57587;55.688;37.600;2023-04-25T07:11:06;16.27;;;8.43;;
70199;SDS011;57587;55.688;37.600;2023-04-25T07:13:35;16.35;;;8.52;;
70199;SDS011;57587;55.688;37.600;2023-04-25T07:16:03;13.10;;;8.67;;
70199;SDS011;57587;55.688;37.600;2023-04-25T07:18:33;21.00;;;9.43;;
70199;SDS011;57587;55.688;37.600;2023-04-25T07:21:01;14.98;;;9.65;;
70199;SDS011;57587;55.688;37.600;2023-04-25T07:23:30;20.67;;;10.68;;
70199;SDS011;57587;55.688;37.600;2023-04-25T07:26:00;15.35;;;9.95;;
70199;SDS011;57587;55.688;37.600;2023-04-25T07:28:28;13.33;;;8.77;;
70199;SDS011;57587;55.688;37.600;2023-04-25T07:30:55;15.88;;;8.77;;
70199;SDS011;57587;55.688;37.600;2023-04-25T07:33:24;21.98;;;9.93;;
70199;SDS011;57587;55.688;37.600;2023-04-25T07:35:51;16.42;;;8.75;;
70199;SDS011;57587;55.688;37.600;2023-04-25T07:38:19;13.25;;;7.80;;
70199;SDS011;57587;55.688;37.600;2023-04-25T07:40:47;17.80;;;7.73;;
70199;SDS011;57587;55.688;37.600;2023-04-25T07:43:15;15.07;;;6.70;;
70199;SDS011;57587;55.688;37.600;2023-04-25T07:45:53;12.07;;;6.70;;
70199;SDS011;57587;55.688;37.600;2023-04-25T07:48:21;11.20;;;6.70;;
70199;SDS011;57587;55.688;37.600;2023-04-25T07:50:51;15.65;;;6.45;;
70199;SDS011;57587;55.688;37.600;2023-04-25T07:53:18;17.07;;;6.90;;
70199;SDS011;57587;55.688;37.600;2023-04-25T07:55:51;18.92;;;6.78;;
70199;SDS011;57587;55.688;37.600;2023-04-25T07:58:20;16.13;;;4.93;;
70199;SDS011;57587;55.688;37.600;2023-04-25T08:00:58;11.73;;;6.72;;
70199;SDS011;57587;55.688;37.600;2023-04-25T08:03:34;10.02;;;5.72;;
70199;SDS011;57587;55.688;37.600;2023-04-25T08:06:05;12.47;;;5.70;;
70199;SDS011;57587;55.688;37.600;2023-04-25T08:08:42;11.98;;;6.75;;
70199;SDS011;57587;55.688;37.600;2023-04-25T08:11:12;14.80;;;7.38;;
70199;SDS011;57587;55.688;37.600;2023-04-25T08:13:39;14.80;;;6.82;;
70199;SDS011;57587;55.688;37.600;2023-04-25T08:16:06;17.83;;;7.53;;
70199;SDS011;57587;55.688;37.600;2023-04-25T08:18:34;11.70;;;7.03;;
70199;SDS011;57587;55.688;37.600;2023-04-25T08:21:01;13.43;;;6.78;;
70199;SDS011;57587;55.688;37.600;2023-04-25T08:23:29;15.15;;;6.40;;
70199;SDS011;57587;55.688;37.600;2023-04-25T08:26:22;12.82;;;6.63;;
70199;SDS011;57587;55.688;37.600;2023-04-25T08:28:50;20.17;;;6.55;;
70199;SDS011;57587;55.688;37.600;2023-04-25T08:31:18;11.40;;;6.47;;
70199;SDS011;57587;55.688;37.600;2023-04-25T08:33:54;10.45;;;6.40;;
70199;SDS011;57587;55.688;37.600;2023-04-25T08:36:26;7.75;;;5.55;;
70199;SDS011;57587;55.688;37.600;2023-04-25T08:38:58;13.57;;;6.15;;
70199;SDS011;57587;55.688;37.600;2023-04-25T08:41:26;15.07;;;5.55;;
70199;SDS011;57587;55.688;37.600;2023-04-25T08:43:54;16.67;;;5.87;;
70199;SDS011;57587;55.688;37.600;2023-04-25T08:46:23;10.43;;;5.25;;
70199;SDS011;57587;55.688;37.600;2023-04-25T08:49:09;10.38;;;5.55;;
70199;SDS011;57587;55.688;37.600;2023-04-25T08:51:37;13.77;;;6.10;;
70199;SDS011;57587;55.688;37.600;2023-04-25T08:54:15;10.15;;;5.60;;
70199;SDS011;57587;55.688;37.600;2023-04-25T08:57:01;11.83;;;5.97;;
70199;SDS011;57587;55.688;37.600;2023-04-25T08:59:29;10.40;;;6.32;;
70199;SDS011;57587;55.688;37.600;2023-04-25T09:01:58;9.95;;;6.93;;
70199;SDS011;57587;55.688;37.600;2023-04-25T09:04:25;10.65;;;8.05;;
70199;SDS011;57587;55.688;37.600;2023-04-25T09:06:54;10.38;;;7.50;;
70199;SDS011;57587;55.688;37.600;2023-04-25T09:09:21;7.63;;;6.00;;
70199;SDS011;57587;55.688;37.600;2023-04-25T09:11:50;8.70;;;5.43;;
70199;SDS011;57587;55.688;37.600;2023-04-25T09:14:18;9.85;;;6.15;;
70199;SDS011;57587;55.688;37.600;2023-04-25T09:17:06;12.68;;;5.25;;
70199;SDS011;57587;55.688;37.600;2023-04-25T09:19:47;17.38;;;5.30;;
70199;SDS011;57587;55.688;37.600;2023-04-25T09:22:19;14.33;;;5.13;;
70199;SDS011;57587;55.688;37.600;2023-04-25T09:24:49;10.23;;;4.78;;
70199;SDS011;57587;55.688;37.600;2023-04-25T09:27:21;8.88;;;5.05;;
70199;SDS011;57587;55.688;37.600;2023-04-25T09:30:16;9.40;;;4.35;;
70199;SDS011;57587;55.688;37.600;2023-04-25T09:33:05;8.40;;;4.50;;
70199;SDS011;57587;55.688;37.600;2023-04-25T09:35:40;10.53;;;4.07;;
70199;SDS011;57587;55.688;37.600;2023-04-25T09:38:14;11.65;;;4.10;;
70199;SDS011;57587;55.688;37.600;2023-04-25T09:40:57;9.80;;;3.88;;
70199;SDS011;57587;55.688;37.600;2023-04-25T09:43:39;14.45;;;4.18;;
70199;SDS011;57587;55.688;37.600;2023-04-25T09:46:09;13.43;;;4.53;;
70199;SDS011;57587;55.688;37.600;2023-04-25T09:48:47;10.43;;;4.10;;
70199;SDS011;57587;55.688;37.600;2023-04-25T09:51:22;11.23;;;4.05;;
70199;SDS011;57587;55.688;37.600;2023-04-25T09:53:55;11.85;;;4.30;;
70199;SDS011;57587;55.688;37.600;2023-04-25T09:56:41;11.93;;;4.10;;
70199;SDS011;57587;55.688;37.600;2023-04-25T09:59:10;14.98;;;4.40;;
70199;SDS011;57587;55.688;37.600;2023-04-25T10:01:39;10.43;;;4.67;;
70199;SDS011;57587;55.688;37.600;2023-04-25T10:04:13;15.95;;;4.75;;
70199;SDS011;57587;55.688;37.600;2023-04-25T10:07:00;15.55;;;4.80;;
70199;SDS011;57587;55.688;37.600;2023-04-25T10:09:28;12.40;;;4.63;;
70199;SDS011;57587;55.688;37.600;2023-04-25T10:12:00;9.70;;;3.85;;
70199;SDS011;57587;55.688;37.600;2023-04-25T10:14:29;11.70;;;4.20;;
70199;SDS011;57587;55.688;37.600;2023-04-25T10:16:58;10.80;;;3.80;;
70199;SDS011;57587;55.688;37.600;2023-04-25T10:19:26;12.90;;;4.40;;
70199;SDS011;57587;55.688;37.600;2023-04-25T10:22:02;12.23;;;4.28;;
70199;SDS011;57587;55.688;37.600;2023-04-25T10:24:32;9.73;;;4.22;;
70199;SDS011;57587;55.688;37.600;2023-04-25T10:27:01;10.23;;;4.70;;
70199;SDS011;57587;55.688;37.600;2023-04-25T10:29:29;13.30;;;4.50;;
70199;SDS011;57587;55.688;37.600;2023-04-25T10:31:56;7.38;;;4.43;;
70199;SDS011;57587;55.688;37.600;2023-04-25T10:34:24;8.05;;;4.20;;
70199;SDS011;57587;55.688;37.600;2023-04-25T10:37:05;13.63;;;5.03;;
70199;SDS011;57587;55.688;37.600;2023-04-25T10:39:36;5.70;;;4.00;;
70199;SDS011;57587;55.688;37.600;2023-04-25T10:42:06;9.50;;;4.18;;
70199;SDS011;57587;55.688;37.600;2023-04-25T10:44:37;6.57;;;3.92;;
70199;SDS011;57587;55.688;37.600;2023-04-25T10:47:07;9.23;;;4.38;;
70199;SDS011;57587;55.688;37.600;2023-04-25T10:49:37;6.20;;;3.55;;
70199;SDS011;57587;55.688;37.600;2023-04-25T10:52:12;11.73;;;4.50;;
70199;SDS011;57587;55.688;37.600;2023-04-25T10:54:47;7.05;;;3.65;;
70199;SDS011;57587;55.688;37.600;2023-04-25T10:57:27;9.57;;;3.60;;
70199;SDS011;57587;55.688;37.600;2023-04-25T11:02:46;5.93;;;3.85;;
70199;SDS011;57587;55.688;37.600;2023-04-25T11:05:16;7.53;;;3.77;;
70199;SDS011;57587;55.688;37.600;2023-04-25T11:07:50;7.55;;;4.35;;
70199;SDS011;57587;55.688;37.600;2023-04-25T11:10:32;9.48;;;3.85;;
70199;SDS011;57587;55.688;37.600;2023-04-25T11:13:02;7.35;;;3.92;;
70199;SDS011;57587;55.688;37.600;2023-04-25T11:15:29;12.93;;;3.67;;
70199;SDS011;57587;55.688;37.600;2023-04-25T11:17:57;6.50;;;3.80;;
70199;SDS011;57587;55.688;37.600;2023-04-25T11:20:25;8.63;;;3.70;;
70199;SDS011;57587;55.688;37.600;2023-04-25T11:22:57;6.70;;;3.60;;
70199;SDS011;57587;55.688;37.600;2023-04-25T11:25:26;8.73;;;3.20;;
70199;SDS011;57587;55.688;37.600;2023-04-25T11:27:55;9.20;;;3.22;;
70199;SDS011;57587;55.688;37.600;2023-04-25T11:30:25;5.63;;;3.23;;
70199;SDS011;57587;55.688;37.600;2023-04-25T11:32:53;8.32;;;3.17;;
70199;SDS011;57587;55.688;37.600;2023-04-25T11:35:20;9.30;;;3.08;;
70199;SDS011;57587;55.688;37.600;2023-04-25T11:37:49;5.70;;;3.05;;
70199;SDS011;57587;55.688;37.600;2023-04-25T11:40:17;5.85;;;3.15;;
70199;SDS011;57587;55.688;37.600;2023-04-25T11:42:45;9.93;;;2.97;;
70199;SDS011;57587;55.688;37.600;2023-04-25T11:45:14;6.75;;;3.30;;
70199;SDS011;57587;55.688;37.600;2023-04-25T11:47:41;7.70;;;3.03;;
70199;SDS011;57587;55.688;37.600;2023-04-25T11:50:08;6.00;;;2.90;;
70199;SDS011;57587;55.688;37.600;2023-04-25T11:52:37;7.28;;;3.08;;
70199;SDS011;57587;55.688;37.600;2023-04-25T11:55:18;8.07;;;3.13;;
70199;SDS011;57587;55.688;37.600;2023-04-25T11:57:47;6.28;;;3.35;;
70199;SDS011;57587;55.688;37.600;2023-04-25T12:00:20;6.28;;;3.67;;
70199;SDS011;57587;55.688;37.600;2023-04-25T12:02:51;5.82;;;3.30;;
70199;SDS011;57587;55.688;37.600;2023-04-25T12:05:23;5.93;;;3.05;;
70199;SDS011;57587;55.688;37.600;2023-04-25T12:08:12;7.60;;;3.63;;
70199;SDS011;57587;55.688;37.600;2023-04-25T12:10:42;8.70;;;3.80;;
70199;SDS011;57587;55.688;37.600;2023-04-25T12:13:23;6.80;;;3.70;;
70199;SDS011;57587;55.688;37.600;2023-04-25T12:15:53;7.25;;;3.17;;
70199;SDS011;57587;55.688;37.600;2023-04-25T12:18:23;6.35;;;3.05;;
70199;SDS011;57587;55.688;37.600;2023-04-25T12:20:54;5.10;;;3.17;;
70199;SDS011;57587;55.688;37.600;2023-04-25T12:23:28;6.88;;;3.83;;
70199;SDS011;57587;55.688;37.600;2023-04-25T12:25:57;5.25;;;3.55;;
70199;SDS011;57587;55.688;37.600;2023-04-25T12:28:25;7.55;;;3.53;;
70199;SDS011;57587;55.688;37.600;2023-04-25T12:31:03;6.28;;;3.65;;
70199;SDS011;57587;55.688;37.600;2023-04-25T12:33:33;6.53;;;3.57;;
70199;SDS011;57587;55.688;37.600;2023-04-25T12:36:02;6.82;;;3.70;;
70199;SDS011;57587;55.688;37.600;2023-04-25T12:38:40;11.07;;;3.67;;
70199;SDS011;57587;55.688;37.600;2023-04-25T12:41:08;6.80;;;3.65;;
70199;SDS011;57587;55.688;37.600;2023-04-25T12:43:36;5.93;;;3.50;;
70199;SDS011;57587;55.688;37.600;2023-04-25T12:46:03;7.70;;;3.77;;
70199;SDS011;57587;55.688;37.600;2023-04-25T12:48:30;10.80;;;4.10;;
70199;SDS011;57587;55.688;37.600;2023-04-25T12:50:58;10.27;;;4.40;;
70199;SDS011;57587;55.688;37.600;2023-04-25T12:53:25;7.70;;;3.78;;
70199;SDS011;57587;55.688;37.600;2023-04-25T12:55:52;9.02;;;3.83;;
70199;SDS011;57587;55.688;37.600;2023-04-25T12:58:20;9.43;;;3.97;;
70199;SDS011;57587;55.688;37.600;2023-04-25T13:00:48;6.57;;;3.67;;
70199;SDS011;57587;55.688;37.600;2023-04-25T13:03:15;6.68;;;3.97;;
70199;SDS011;57587;55.688;37.600;2023-04-25T13:05:43;8.32;;;3.67;;
70199;SDS011;57587;55.688;37.600;2023-04-25T13:08:10;5.55;;;3.42;;
70199;SDS011;57587;55.688;37.600;2023-04-25T13:10:38;10.03;;;3.30;;
70199;SDS011;57587;55.688;37.600;2023-04-25T13:13:06;9.05;;;4.18;;
70199;SDS011;57587;55.688;37.600;2023-04-25T13:15:33;14.23;;;4.35;;
70199;SDS011;57587;55.688;37.600;2023-04-25T13:18:00;10.23;;;4.28;;
70199;SDS011;57587;55.688;37.600;2023-04-25T13:20:27;9.70;;;3.67;;
70199;SDS011;57587;55.688;37.600;2023-04-25T13:22:54;6.77;;;4.20;;
70199;SDS011;57587;55.688;37.600;2023-04-25T13:25:21;7.47;;;4.00;;
70199;SDS011;57587;55.688;37.600;2023-04-25T13:27:49;7.93;;;3.60;;
70199;SDS011;57587;55.688;37.600;2023-04-25T13:30:16;6.10;;;4.10;;
70199;SDS011;57587;55.688;37.600;2023-04-25T13:32:43;7.88;;;4.05;;
70199;SDS011;57587;55.688;37.600;2023-04-25T13:35:11;10.90;;;4.93;;
70199;SDS011;57587;55.688;37.600;2023-04-25T13:37:40;8.07;;;4.40;;
70199;SDS011;57587;55.688;37.600;2023-04-25T13:40:08;10.07;;;5.05;;
70199;SDS011;57587;55.688;37.600;2023-04-25T13:42:37;10.10;;;4.63;;
70199;SDS011;57587;55.688;37.600;2023-04-25T13:45:05;8.48;;;4.00;;
70199;SDS011;57587;55.688;37.600;2023-04-25T13:47:33;8.97;;;4.40;;
70199;SDS011;57587;55.688;37.600;2023-04-25T13:50:01;9.65;;;4.30;;
70199;SDS011;57587;55.688;37.600;2023-04-25T13:52:31;11.30;;;4.80;;
70199;SDS011;57587;55.688;37.600;2023-04-25T13:54:58;7.00;;;4.20;;
70199;SDS011;57587;55.688;37.600;2023-04-25T13:57:26;9.98;;;3.97;;
70199;SDS011;57587;55.688;37.600;2023-04-25T13:59:53;9.60;;;4.57;;
70199;SDS011;57587;55.688;37.600;2023-04-25T14:02:20;12.60;;;4.22;;
70199;SDS011;57587;55.688;37.600;2023-04-25T14:04:47;9.23;;;4.25;;
70199;SDS011;57587;55.688;37.600;2023-04-25T14:07:15;9.38;;;5.78;;
70199;SDS011;57587;55.688;37.600;2023-04-25T14:09:50;8.60;;;4.60;;
70199;SDS011;57587;55.688;37.600;2023-04-25T14:12:18;9.73;;;4.17;;
70199;SDS011;57587;55.688;37.600;2023-04-25T14:14:45;8.13;;;4.20;;
70199;SDS011;57587;55.688;37.600;2023-04-25T14:17:12;10.23;;;4.72;;
70199;SDS011;57587;55.688;37.600;2023-04-25T14:19:39;9.73;;;4.18;;
70199;SDS011;57587;55.688;37.600;2023-04-25T14:22:10;11.50;;;4.60;;
70199;SDS011;57587;55.688;37.600;2023-04-25T14:24:37;9.20;;;4.07;;
70199;SDS011;57587;55.688;37.600;2023-04-25T14:27:05;6.70;;;4.20;;
70199;SDS011;57587;55.688;37.600;2023-04-25T14:29:32;7.75;;;4.13;;
70199;SDS011;57587;55.688;37.600;2023-04-25T14:31:59;10.50;;;4.30;;
70199;SDS011;57587;55.688;37.600;2023-04-25T14:34:27;10.77;;;4.60;;
70199;SDS011;57587;55.688;37.600;2023-04-25T14:36:54;5.90;;;3.97;;
70199;SDS011;57587;55.688;37.600;2023-04-25T14:39:21;7.97;;;3.90;;
70199;SDS011;57587;55.688;37.600;2023-04-25T14:41:48;8.70;;;4.60;;
70199;SDS011;57587;55.688;37.600;2023-04-25T14:44:16;9.45;;;3.90;;
70199;SDS011;57587;55.688;37.600;2023-04-25T14:46:43;10.65;;;4.15;;
70199;SDS011;57587;55.688;37.600;2023-04-25T14:49:10;8.97;;;4.00;;
70199;SDS011;57587;55.688;37.600;2023-04-25T14:51:37;20.55;;;6.03;;